Time;durP1;ratioP1;P1;durP2;ratioP2;P2;SDS_P1;SDS_P2;PMS_P1;PMS_P2;Temp;Humidity;BMP_temperature;BMP_pressure;BME280_temperature;BME280_humidity;BME280_pressure;Samples;Min_cycle;Max_cycle;Signal;HPM_P1;HPM_P2
2022/12/27 00:01:25;;;;;;;12.10;1.65;;;3.20;99.90;;;;;;4990590;28;20442;-79
2022/12/27 00:03:51;;;;;;;11.52;1.60;;;3.20;99.90;;;;;;4990563;28;20046;-75
2022/12/27 00:06:20;;;;;;;10.52;1.60;;;3.20;99.90;;;;;;4988894;28;20066;-74
2022/12/27 00:08:46;;;;;;;5.65;1.17;;;3.20;99.90;;;;;;4990330;28;20073;-74
2022/12/27 00:11:18;;;;;;;10.45;1.80;;;3.20;99.90;;;;;;4989888;28;20046;-75
2022/12/27 00:13:44;;;;;;;15.15;1.40;;;3.20;99.90;;;;;;4990240;28;20489;-79
2022/12/27 00:16:13;;;;;;;7.47;1.33;;;3.30;99.90;;;;;;4988970;28;20057;-75
2022/12/27 00:18:40;;;;;;;12.10;1.95;;;3.30;99.90;;;;;;4989999;28;20493;-78
2022/12/27 00:21:07;;;;;;;10.02;1.25;;;4.10;99.90;;;;;;4989420;28;20386;-74
2022/12/27 00:23:38;;;;;;;14.50;1.55;;;3.40;99.90;;;;;;4989508;28;20086;-77
2022/12/27 00:26:17;;;;;;;10.50;1.80;;;4.00;99.90;;;;;;4989682;28;20132;-80
2022/12/27 00:28:43;;;;;;;14.32;1.60;;;3.40;99.90;;;;;;4988469;28;20050;-74
2022/12/27 00:31:09;;;;;;;10.65;1.40;;;3.40;99.90;;;;;;4989092;28;20389;-74
2022/12/27 00:33:37;;;;;;;8.65;1.80;;;3.40;99.90;;;;;;4989899;28;20568;-74
2022/12/27 00:36:06;;;;;;;12.25;1.63;;;3.50;99.90;;;;;;4989852;28;20078;-76
2022/12/27 00:38:32;;;;;;;13.80;2.67;;;3.50;99.90;;;;;;4989506;28;20056;-74
2022/12/27 00:40:59;;;;;;;9.48;1.85;;;3.50;99.90;;;;;;4989614;28;20086;-74
2022/12/27 00:43:24;;;;;;;10.43;1.83;;;3.50;99.90;;;;;;5050188;28;20445;-79
2022/12/27 00:45:50;;;;;;;15.10;2.35;;;3.50;99.90;;;;;;5092306;28;20051;-78
2022/12/27 00:48:16;;;;;;;11.43;1.83;;;3.50;99.90;;;;;;5041966;28;20043;-75
2022/12/27 00:50:43;;;;;;;10.05;1.50;;;3.50;99.90;;;;;;4989721;28;20046;-76
2022/12/27 00:53:10;;;;;;;9.00;2.33;;;3.50;99.90;;;;;;4987316;28;20061;-73
2022/12/27 00:55:36;;;;;;;18.00;2.08;;;3.50;99.90;;;;;;4990036;28;20088;-74
2022/12/27 00:58:02;;;;;;;13.52;1.85;;;3.50;99.90;;;;;;4989427;28;20111;-75
2022/12/27 01:00:27;;;;;;;10.02;1.73;;;3.60;99.90;;;;;;4989539;28;20534;-73
2022/12/27 01:02:53;;;;;;;14.05;1.80;;;3.70;99.90;;;;;;4989661;28;20493;-73
2022/12/27 01:05:20;;;;;;;14.63;1.55;;;3.70;99.90;;;;;;4989527;28;20043;-73
2022/12/27 01:07:46;;;;;;;14.88;2.05;;;4.50;99.90;;;;;;4989414;28;20054;-76
2022/12/27 01:10:12;;;;;;;15.43;2.00;;;3.90;99.90;;;;;;4989054;28;20900;-78
2022/12/27 01:12:38;;;;;;;14.35;1.88;;;3.90;99.90;;;;;;4989263;28;20527;-74
2022/12/27 01:15:06;;;;;;;12.52;1.60;;;4.00;99.90;;;;;;4987978;28;20039;-75
2022/12/27 01:17:32;;;;;;;15.95;1.77;;;4.00;99.90;;;;;;4989334;28;20125;-75
2022/12/27 01:19:57;;;;;;;11.02;2.08;;;4.10;99.90;;;;;;4988985;28;20656;-74
2022/12/27 01:22:23;;;;;;;14.23;1.60;;;4.10;99.90;;;;;;4988978;28;20100;-73
2022/12/27 01:24:48;;;;;;;13.63;1.83;;;4.10;99.90;;;;;;4987651;28;20386;-73
2022/12/27 01:27:14;;;;;;;18.75;2.20;;;4.20;99.90;;;;;;4989320;28;20050;-74
2022/12/27 01:29:40;;;;;;;11.35;1.98;;;4.20;99.90;;;;;;4989357;28;20050;-75
2022/12/27 01:32:06;;;;;;;19.25;1.90;;;4.70;99.90;;;;;;4987565;28;20050;-74
2022/12/27 01:34:31;;;;;;;12.10;1.25;;;4.30;99.90;;;;;;4988842;28;20512;-73
2022/12/27 01:36:57;;;;;;;8.77;1.90;;;4.30;99.90;;;;;;4988447;28;20093;-75
2022/12/27 01:39:23;;;;;;;9.10;1.42;;;4.40;99.90;;;;;;4989059;28;20050;-76
2022/12/27 01:44:39;;;;;;;13.05;1.70;;;4.40;99.90;;;;;;4989161;28;20054;-74
2022/12/27 01:47:11;;;;;;;7.80;1.20;;;4.90;99.90;;;;;;4989041;28;20078;-75
2022/12/27 01:49:44;;;;;;;10.73;1.80;;;4.40;99.90;;;;;;4988471;28;20072;-78
2022/12/27 01:52:11;;;;;;;12.70;1.80;;;4.40;99.90;;;;;;4989144;28;20050;-74
2022/12/27 01:54:37;;;;;;;17.70;2.00;;;4.40;99.90;;;;;;4989102;28;20046;-75
2022/12/27 01:57:03;;;;;;;8.52;1.50;;;4.40;99.90;;;;;;4988614;28;20089;-83
2022/12/27 01:59:30;;;;;;;16.17;1.98;;;4.40;99.90;;;;;;4988636;28;20046;-77
2022/12/27 02:01:56;;;;;;;13.43;1.77;;;4.40;99.90;;;;;;4989060;28;20047;-75
2022/12/27 02:04:26;;;;;;;5.15;1.23;;;4.30;99.90;;;;;;4989052;28;20058;-77
2022/12/27 02:06:52;;;;;;;14.88;1.70;;;4.40;99.90;;;;;;4988889;28;20055;-77
2022/12/27 02:09:44;;;;;;;11.57;1.60;;;4.40;99.90;;;;;;4988206;28;20077;-83
2022/12/27 02:12:10;;;;;;;12.18;2.08;;;4.30;99.90;;;;;;4988220;28;20085;-76
2022/12/27 02:14:42;;;;;;;15.10;1.60;;;4.30;99.90;;;;;;4987655;28;20081;-77
2022/12/27 02:17:26;;;;;;;14.90;1.73;;;4.20;99.90;;;;;;4988324;28;20090;-81
2022/12/27 02:20:02;;;;;;;13.70;1.67;;;4.20;99.90;;;;;;4987326;28;20050;-75
2022/12/27 02:26:21;;;;;;;10.25;2.08;;;4.20;99.90;;;;;;4988513;28;20051;-76
2022/12/27 02:29:14;;;;;;;8.73;1.60;;;4.10;99.90;;;;;;4985891;28;20138;-75
2022/12/27 02:31:58;;;;;;;19.48;2.17;;;4.10;99.90;;;;;;4987895;28;20074;-76
2022/12/27 02:34:33;;;;;;;13.93;2.65;;;4.00;99.90;;;;;;4986694;28;20108;-80
2022/12/27 02:37:06;;;;;;;13.30;1.75;;;4.60;99.90;;;;;;4988050;28;20047;-74
2022/12/27 02:39:34;;;;;;;8.65;2.13;;;4.00;99.90;;;;;;4987638;28;20039;-75
2022/12/27 02:53:10;;;;;;;14.35;1.70;;;4.30;99.90;;;;;;4968520;28;20058;-76
2022/12/27 02:59:04;;;;;;;9.68;2.42;;;4.30;99.90;;;;;;4987842;28;20050;-75
2022/12/27 03:04:59;;;;;;;15.75;1.52;;;4.40;99.90;;;;;;4987761;28;20062;-81
2022/12/27 03:07:36;;;;;;;10.52;2.15;;;4.40;99.90;;;;;;4987772;28;20046;-75
2022/12/27 03:16:13;;;;;;;10.80;1.20;;;4.30;99.90;;;;;;4988487;28;20488;-76
2022/12/27 03:19:04;;;;;;;11.45;1.60;;;4.30;99.90;;;;;;4990870;28;20072;-78
2022/12/27 03:27:27;;;;;;;10.98;1.50;;;4.20;99.90;;;;;;4973645;28;20514;-84
2022/12/27 03:39:08;;;;;;;15.50;1.88;;;4.30;99.90;;;;;;4988498;28;20057;-79
2022/12/27 03:44:31;;;;;;;13.25;1.90;;;4.30;99.90;;;;;;4990452;28;20050;-76
2022/12/27 03:47:00;;;;;;;6.95;1.98;;;4.40;99.90;;;;;;4990178;28;20107;-83
2022/12/27 03:49:39;;;;;;;19.13;1.95;;;4.40;99.90;;;;;;4990065;28;20038;-76
2022/12/27 03:52:40;;;;;;;9.80;2.28;;;4.40;99.90;;;;;;4990078;28;20054;-73
2022/12/27 03:55:07;;;;;;;17.83;1.60;;;4.50;99.90;;;;;;5022507;28;20183;-76
2022/12/27 03:57:33;;;;;;;11.23;1.63;;;4.50;99.90;;;;;;5030400;28;20053;-78
2022/12/27 03:59:59;;;;;;;11.93;1.80;;;4.70;99.90;;;;;;5013362;28;20057;-76
2022/12/27 04:02:24;;;;;;;7.20;1.30;;;4.40;99.90;;;;;;5030491;28;20042;-74
2022/12/27 04:04:50;;;;;;;11.40;1.50;;;4.60;99.90;;;;;;5030561;28;20417;-73
2022/12/27 04:07:16;;;;;;;8.27;1.38;;;4.30;99.90;;;;;;5030488;28;20045;-77
2022/12/27 04:34:38;;;;;;;9.40;1.42;;;4.10;99.90;;;;;;4989586;28;20051;-74
2022/12/27 04:37:04;;;;;;;14.23;3.15;;;4.10;99.90;;;;;;4989816;28;20058;-73
2022/12/27 04:39:31;;;;;;;13.82;1.90;;;4.00;99.90;;;;;;4989435;28;20045;-74
2022/12/27 04:56:00;;;;;;;;;;;3.80;99.90;;;;;;4990309;28;20493;-82
2022/12/27 04:58:26;;;;;;;14.98;2.35;;;3.90;99.90;;;;;;4989760;28;19925;-86
2022/12/27 05:03:38;;;;;;;19.15;2.33;;;4.00;99.90;;;;;;4989287;28;20104;-74
2022/12/27 05:06:04;;;;;;;8.45;1.70;;;4.00;99.90;;;;;;4988954;28;20046;-79
2022/12/27 05:14:01;;;;;;;14.90;1.77;;;4.20;99.90;;;;;;4989158;28;20413;-75
2022/12/27 05:16:36;;;;;;;9.07;1.55;;;4.10;99.90;;;;;;4989416;28;20049;-79
2022/12/27 05:19:04;;;;;;;10.20;1.58;;;4.10;99.90;;;;;;4988108;28;20473;-76
2022/12/27 05:21:29;;;;;;;10.40;2.38;;;4.00;99.90;;;;;;4988890;28;20074;-77
2022/12/27 05:26:40;;;;;;;4.95;1.50;;;3.90;99.90;;;;;;4989161;28;20054;-75
2022/12/27 05:29:06;;;;;;;9.68;1.90;;;3.80;99.90;;;;;;4988958;28;20057;-78
2022/12/27 05:31:33;;;;;;;4.10;0.90;;;4.70;99.90;;;;;;5000460;28;20042;-76
2022/12/27 05:33:59;;;;;;;8.20;1.27;;;3.80;99.90;;;;;;4988072;28;20076;-85
2022/12/27 05:36:25;;;;;;;7.28;1.25;;;3.80;99.90;;;;;;4989087;28;20453;-76
2022/12/27 05:38:51;;;;;;;6.15;1.50;;;3.70;99.90;;;;;;4988444;28;20046;-76
2022/12/27 05:41:17;;;;;;;9.38;1.70;;;3.80;99.90;;;;;;4988886;28;20120;-79
2022/12/27 05:43:43;;;;;;;5.55;1.67;;;3.70;99.90;;;;;;4988662;28;20035;-78
2022/12/27 05:46:15;;;;;;;17.77;2.42;;;3.70;99.90;;;;;;4987448;28;20545;-75
2022/12/27 05:48:41;;;;;;;6.85;1.50;;;3.70;99.90;;;;;;4987487;28;20404;-77
2022/12/27 05:51:10;;;;;;;11.65;1.85;;;3.70;99.90;;;;;;4986505;28;20046;-79
2022/12/27 05:53:36;;;;;;;13.13;1.70;;;3.60;99.90;;;;;;4988745;28;20129;-78
2022/12/27 05:56:01;;;;;;;16.02;1.83;;;3.60;99.90;;;;;;4988430;28;20121;-76
2022/12/27 05:58:27;;;;;;;7.18;1.75;;;3.50;99.90;;;;;;4987324;28;20059;-76
2022/12/27 06:00:53;;;;;;;11.80;2.13;;;3.60;99.90;;;;;;4988157;28;20050;-75
2022/12/27 06:03:19;;;;;;;17.33;2.00;;;3.90;99.90;;;;;;4988047;28;20049;-78
2022/12/27 06:05:44;;;;;;;16.55;2.08;;;3.50;99.90;;;;;;4987942;28;20117;-77
2022/12/27 06:08:10;;;;;;;12.35;1.70;;;3.60;99.90;;;;;;4988295;28;20050;-82
2022/12/27 06:10:36;;;;;;;12.05;2.35;;;3.50;99.90;;;;;;4988566;28;20034;-76
2022/12/27 06:13:02;;;;;;;9.27;2.10;;;3.50;99.90;;;;;;4988604;28;20183;-76
2022/12/27 06:15:29;;;;;;;15.05;2.05;;;3.50;99.90;;;;;;4987777;28;20587;-82
2022/12/27 06:17:54;;;;;;;8.65;1.38;;;3.50;99.90;;;;;;4988263;28;20405;-75
2022/12/27 06:20:20;;;;;;;14.25;2.95;;;3.50;99.90;;;;;;4987952;28;20145;-79
2022/12/27 06:22:46;;;;;;;14.40;2.38;;;3.40;99.90;;;;;;4988653;28;20409;-75
2022/12/27 06:25:12;;;;;;;14.98;1.63;;;3.40;99.90;;;;;;4988950;28;20075;-75
2022/12/27 06:27:37;;;;;;;15.07;1.65;;;3.40;99.90;;;;;;4988116;28;20104;-74
2022/12/27 06:30:04;;;;;;;17.67;2.30;;;3.30;99.90;;;;;;4987953;28;20107;-76
2022/12/27 06:32:30;;;;;;;10.50;1.70;;;3.30;99.90;;;;;;4988315;28;20409;-76
2022/12/27 06:34:56;;;;;;;7.93;1.50;;;3.30;99.90;;;;;;4986803;28;20097;-76
2022/12/27 06:37:22;;;;;;;10.32;1.55;;;3.20;99.90;;;;;;4986276;28;20081;-75
2022/12/27 06:39:47;;;;;;;11.45;1.63;;;3.20;99.90;;;;;;4988301;28;20715;-78
2022/12/27 06:42:13;;;;;;;14.38;2.03;;;3.20;99.90;;;;;;4988454;28;20074;-75
2022/12/27 06:44:39;;;;;;;10.60;1.60;;;3.20;99.90;;;;;;4986825;28;20050;-84
2022/12/27 06:47:04;;;;;;;10.18;2.17;;;3.20;99.90;;;;;;4987462;28;20509;-79
2022/12/27 06:49:30;;;;;;;14.07;2.47;;;3.20;99.90;;;;;;4986677;28;20100;-77
2022/12/27 06:51:56;;;;;;;8.55;1.20;;;3.20;99.90;;;;;;4985443;28;20046;-76
2022/12/27 06:54:22;;;;;;;9.38;1.60;;;3.20;99.90;;;;;;4986717;28;20129;-75
2022/12/27 06:56:47;;;;;;;16.88;2.22;;;3.20;99.90;;;;;;4987965;28;20138;-79
2022/12/27 06:59:13;;;;;;;11.52;1.90;;;3.10;99.90;;;;;;4987411;28;20100;-75
2022/12/27 07:01:40;;;;;;;10.82;1.40;;;3.10;99.90;;;;;;4987499;28;20050;-75
2022/12/27 07:04:06;;;;;;;14.95;1.85;;;3.10;99.90;;;;;;4986276;28;20046;-75
2022/12/27 07:06:35;;;;;;;10.93;1.73;;;3.10;99.90;;;;;;4987470;28;20391;-75
2022/12/27 07:09:01;;;;;;;10.30;1.42;;;3.10;99.90;;;;;;4985833;28;20072;-76
2022/12/27 07:11:27;;;;;;;12.68;2.17;;;3.10;99.90;;;;;;4987734;28;20370;-75
2022/12/27 07:13:54;;;;;;;9.32;1.58;;;3.10;99.90;;;;;;4987069;28;20057;-74
2022/12/27 07:16:22;;;;;;;16.98;1.80;;;3.10;99.90;;;;;;4987562;28;20060;-78
2022/12/27 07:18:49;;;;;;;12.30;1.92;;;3.10;99.90;;;;;;4987171;28;20050;-77
2022/12/27 07:21:18;;;;;;;17.60;2.67;;;3.10;99.90;;;;;;4987408;28;20444;-74
2022/12/27 07:23:44;;;;;;;11.70;1.65;;;3.20;99.90;;;;;;4986724;28;20078;-73
2022/12/27 07:26:12;;;;;;;8.02;1.48;;;3.20;99.90;;;;;;4987092;28;20352;-74
2022/12/27 07:28:39;;;;;;;12.80;2.13;;;3.20;99.90;;;;;;4987205;28;20050;-74
2022/12/27 07:31:10;;;;;;;8.95;1.88;;;3.10;99.90;;;;;;4986513;28;20438;-76
2022/12/27 07:33:37;;;;;;;8.73;1.77;;;3.10;99.90;;;;;;4987043;28;20121;-73
2022/12/27 07:36:06;;;;;;;13.55;1.98;;;3.20;99.90;;;;;;4987163;28;20508;-74
2022/12/27 07:38:31;;;;;;;17.85;2.33;;;3.10;99.90;;;;;;4987171;28;20050;-75
2022/12/27 07:40:59;;;;;;;11.77;1.70;;;3.90;99.90;;;;;;4985566;28;20080;-73
2022/12/27 07:43:25;;;;;;;19.80;2.60;;;3.10;99.90;;;;;;4987156;28;20089;-74
2022/12/27 07:45:50;;;;;;;11.20;1.55;;;3.10;99.90;;;;;;4986945;28;20084;-74
2022/12/27 07:48:16;;;;;;;14.52;2.15;;;3.00;99.90;;;;;;4985605;28;20062;-76
2022/12/27 07:50:42;;;;;;;20.88;2.50;;;3.10;99.90;;;;;;4986748;28;20100;-75
2022/12/27 07:53:07;;;;;;;22.45;2.33;;;3.00;99.90;;;;;;4986883;28;20487;-74
2022/12/27 07:55:33;;;;;;;17.92;2.67;;;3.00;99.90;;;;;;4985397;28;20053;-75
2022/12/27 07:57:58;;;;;;;16.92;2.42;;;3.00;99.90;;;;;;4987084;28;20473;-77
2022/12/27 08:00:24;;;;;;;14.02;2.25;;;3.10;99.90;;;;;;4986130;28;20493;-76
2022/12/27 08:02:50;;;;;;;15.38;2.50;;;3.00;99.90;;;;;;4988496;28;20084;-76
2022/12/27 08:05:15;;;;;;;9.82;1.75;;;3.10;99.90;;;;;;4988907;28;20085;-75
2022/12/27 08:07:41;;;;;;;14.55;3.03;;;3.00;99.90;;;;;;4989951;28;20046;-74
2022/12/27 08:10:08;;;;;;;18.35;2.40;;;3.00;99.90;;;;;;4989893;28;20042;-75
2022/12/27 08:12:34;;;;;;;14.23;2.00;;;3.00;99.90;;;;;;4989787;28;20088;-74
2022/12/27 08:14:59;;;;;;;12.13;2.22;;;3.00;99.90;;;;;;4990216;28;20125;-74
2022/12/27 08:17:26;;;;;;;11.25;2.25;;;3.00;99.90;;;;;;4990131;28;20092;-75
2022/12/27 08:19:54;;;;;;;11.27;2.25;;;3.00;99.90;;;;;;4989977;28;20492;-74
2022/12/27 08:22:21;;;;;;;16.17;2.95;;;2.90;99.90;;;;;;4989474;28;20104;-75
2022/12/27 08:24:47;;;;;;;14.40;2.40;;;2.90;99.90;;;;;;4989071;28;20451;-75
2022/12/27 08:27:20;;;;;;;19.10;2.28;;;2.90;99.90;;;;;;4989613;28;20061;-74
2022/12/27 08:29:46;;;;;;;12.63;2.53;;;2.90;99.90;;;;;;4990331;28;20082;-75
2022/12/27 08:32:12;;;;;;;16.83;2.50;;;2.90;99.90;;;;;;4988498;28;20139;-74
2022/12/27 08:34:37;;;;;;;13.13;2.40;;;2.90;99.90;;;;;;4989838;28;20054;-74
2022/12/27 08:37:03;;;;;;;14.38;3.08;;;2.90;99.90;;;;;;4989657;28;20169;-75
2022/12/27 08:39:29;;;;;;;17.23;3.10;;;3.50;99.90;;;;;;4989443;28;20626;-80
2022/12/27 08:41:54;;;;;;;20.67;3.15;;;2.80;99.90;;;;;;4988604;28;20051;-77
2022/12/27 08:44:21;;;;;;;11.50;2.03;;;2.80;99.90;;;;;;4989290;28;20049;-76
2022/12/27 08:46:46;;;;;;;16.17;2.70;;;2.90;99.90;;;;;;4989956;28;20125;-74
2022/12/27 08:49:12;;;;;;;11.23;2.53;;;3.80;99.90;;;;;;4989178;28;20191;-75
2022/12/27 08:51:37;;;;;;;15.43;3.08;;;2.90;99.90;;;;;;4989495;28;20054;-75
2022/12/27 08:54:03;;;;;;;11.40;3.10;;;2.90;99.90;;;;;;4988157;28;20183;-76
2022/12/27 08:56:29;;;;;;;14.10;3.10;;;2.90;99.90;;;;;;4987718;28;20042;-84
2022/12/27 08:58:54;;;;;;;15.05;2.33;;;3.00;99.90;;;;;;4989540;28;20130;-77
2022/12/27 09:01:21;;;;;;;19.33;4.47;;;3.00;99.90;;;;;;4989735;28;20047;-75
2022/12/27 09:03:46;;;;;;;15.32;2.88;;;3.00;99.90;;;;;;4989632;28;20066;-75
2022/12/27 09:06:15;;;;;;;21.92;2.72;;;3.70;99.90;;;;;;4988178;28;20074;-74
2022/12/27 09:08:42;;;;;;;16.00;2.70;;;3.10;99.90;;;;;;4988571;28;20050;-75
2022/12/27 09:11:10;;;;;;;11.02;2.03;;;3.00;99.90;;;;;;4988565;28;20100;-73
2022/12/27 09:13:36;;;;;;;18.20;2.80;;;3.10;99.90;;;;;;4987780;28;20050;-75
2022/12/27 09:16:09;;;;;;;14.85;3.17;;;3.10;99.90;;;;;;4988498;28;20046;-74
2022/12/27 09:18:39;;;;;;;18.33;2.50;;;3.10;99.90;;;;;;4988366;28;20078;-76
2022/12/27 09:21:08;;;;;;;16.08;3.08;;;3.20;99.90;;;;;;4987986;28;20042;-79
2022/12/27 09:23:34;;;;;;;9.90;2.17;;;3.20;99.90;;;;;;4988902;28;20572;-74
2022/12/27 09:26:05;;;;;;;17.45;3.53;;;3.20;99.90;;;;;;4989054;28;20047;-76
2022/12/27 09:28:31;;;;;;;12.80;2.40;;;3.30;99.90;;;;;;4988727;28;20400;-74
2022/12/27 09:30:57;;;;;;;11.10;2.45;;;3.30;99.90;;;;;;4988879;28;20042;-75
2022/12/27 09:33:23;;;;;;;17.42;2.70;;;3.40;99.90;;;;;;4987289;28;20089;-76
2022/12/27 09:35:49;;;;;;;12.43;2.47;;;3.50;99.90;;;;;;4988805;28;20086;-83
2022/12/27 09:38:14;;;;;;;12.23;2.80;;;4.10;99.90;;;;;;4988717;28;20084;-75
2022/12/27 09:40:51;;;;;;;13.82;2.47;;;3.60;99.90;;;;;;4988488;28;20058;-74
2022/12/27 09:43:17;;;;;;;14.73;2.72;;;3.60;99.90;;;;;;4988564;28;20060;-77
2022/12/27 09:45:48;;;;;;;14.50;2.35;;;3.70;99.90;;;;;;4988706;28;20456;-75
2022/12/27 09:48:34;;;;;;;15.07;2.78;;;3.80;99.90;;;;;;4986862;28;20093;-80
2022/12/27 09:51:28;;;;;;;16.55;2.28;;;3.90;99.90;;;;;;4988633;28;20443;-74
2022/12/27 09:54:06;;;;;;;25.20;3.97;;;4.00;99.90;;;;;;4988583;28;20058;-75
2022/12/27 09:56:34;;;;;;;12.75;2.80;;;4.10;99.90;;;;;;4988508;28;20125;-80
2022/12/27 09:59:29;;;;;;;14.65;2.80;;;4.20;99.90;;;;;;4987744;28;20131;-78
2022/12/27 10:01:54;;;;;;;18.45;3.28;;;4.30;99.90;;;;;;4988922;28;20421;-79
2022/12/27 10:04:20;;;;;;;14.35;3.10;;;4.30;99.90;;;;;;4988441;28;20046;-80
2022/12/27 10:06:48;;;;;;;14.85;2.70;;;4.40;99.90;;;;;;4988347;28;20057;-78
2022/12/27 10:09:32;;;;;;;12.35;2.20;;;4.50;99.90;;;;;;4988044;28;20188;-79
2022/12/27 10:12:16;;;;;;;15.40;2.40;;;4.60;99.90;;;;;;4987193;28;20826;-77
2022/12/27 10:14:53;;;;;;;12.32;2.38;;;4.80;99.90;;;;;;4987656;28;20042;-79
2022/12/27 10:17:31;;;;;;;16.20;2.92;;;4.90;99.90;;;;;;4988357;28;20134;-80
2022/12/27 10:20:16;;;;;;;16.77;2.58;;;4.90;99.90;;;;;;4987543;28;20053;-80
2022/12/27 10:22:49;;;;;;;13.90;2.65;;;4.90;99.90;;;;;;4987963;28;20577;-81
2022/12/27 10:25:19;;;;;;;16.33;3.00;;;5.00;99.90;;;;;;4987246;28;20556;-80
2022/12/27 10:27:46;;;;;;;11.35;1.98;;;5.10;99.90;;;;;;4987634;28;20046;-80
2022/12/27 10:30:20;;;;;;;14.00;2.30;;;5.20;99.90;;;;;;4989874;28;20049;-76
2022/12/27 10:32:47;;;;;;;9.90;2.20;;;5.40;99.90;;;;;;4987699;28;20093;-78
2022/12/27 10:35:16;;;;;;;13.52;2.33;;;5.50;99.90;;;;;;4987500;28;20534;-79
2022/12/27 10:37:42;;;;;;;12.18;1.98;;;5.70;99.90;;;;;;4988006;28;20057;-79
2022/12/27 10:40:19;;;;;;;16.10;3.63;;;5.80;99.90;;;;;;4988043;28;20073;-78
2022/12/27 10:42:56;;;;;;;14.07;2.25;;;5.90;99.90;;;;;;4987750;28;20137;-81
2022/12/27 10:45:27;;;;;;;13.07;2.13;;;5.90;99.90;;;;;;4987716;28;20038;-78
2022/12/27 10:47:55;;;;;;;11.75;1.83;;;6.00;99.90;;;;;;4987518;28;20056;-78
2022/12/27 10:50:24;;;;;;;11.30;2.35;;;5.90;99.90;;;;;;4986274;28;20054;-77
2022/12/27 10:52:50;;;;;;;9.23;1.98;;;6.00;99.90;;;;;;4987347;28;20054;-77
2022/12/27 10:55:34;;;;;;;11.50;2.13;;;6.10;99.90;;;;;;4987845;28;20054;-79
2022/12/27 10:58:22;;;;;;;14.75;2.30;;;6.80;99.90;;;;;;4987540;28;20409;-79
2022/12/27 11:00:56;;;;;;;11.88;2.00;;;6.20;99.90;;;;;;4972857;28;20058;-78
2022/12/27 11:03:22;;;;;;;14.33;2.30;;;6.30;99.90;;;;;;4984913;28;20054;-78
2022/12/27 11:06:19;;;;;;;13.68;2.53;;;6.40;99.90;;;;;;4986929;28;20074;-80
2022/12/27 11:08:44;;;;;;;13.25;1.95;;;6.40;99.90;;;;;;4987647;28;20054;-78
2022/12/27 11:11:13;;;;;;;9.07;1.88;;;6.30;99.90;;;;;;4987422;28;20058;-78
2022/12/27 11:13:39;;;;;;;19.38;2.40;;;6.20;99.90;;;;;;4987686;28;20035;-78
2022/12/27 11:16:10;;;;;;;11.27;2.40;;;6.20;99.90;;;;;;4987125;28;20509;-78
2022/12/27 11:18:40;;;;;;;11.02;2.60;;;6.10;99.90;;;;;;4987259;28;20196;-77
2022/12/27 11:21:12;;;;;;;13.82;2.33;;;6.00;99.90;;;;;;4986934;28;20058;-74
2022/12/27 11:23:44;;;;;;;13.93;2.13;;;6.10;99.90;;;;;;4986094;28;20047;-77
2022/12/27 11:26:19;;;;;;;11.30;1.80;;;6.90;99.90;;;;;;4985654;28;20676;-78
2022/12/27 11:28:54;;;;;;;13.65;2.72;;;6.40;99.90;;;;;;4987378;28;20043;-79
2022/12/27 11:31:35;;;;;;;11.13;2.03;;;6.50;99.90;;;;;;4987385;28;20412;-78
2022/12/27 11:34:24;;;;;;;15.60;2.53;;;6.70;99.90;;;;;;4986406;28;20831;-77
2022/12/27 11:36:53;;;;;;;9.75;2.17;;;6.80;99.90;;;;;;4968284;28;20050;-78
2022/12/27 11:39:46;;;;;;;10.73;1.80;;;6.80;99.90;;;;;;4970141;28;20126;-77
2022/12/27 11:42:20;;;;;;;13.18;2.20;;;6.90;99.90;;;;;;4971388;28;20076;-77
2022/12/27 11:44:58;;;;;;;12.13;2.05;;;6.90;99.90;;;;;;4976199;28;20050;-77
2022/12/27 11:47:43;;;;;;;15.00;2.30;;;7.00;99.90;;;;;;4990345;28;20587;-77
2022/12/27 11:50:14;;;;;;;17.08;2.50;;;7.00;99.90;;;;;;4990272;28;20546;-78
2022/12/27 11:52:48;;;;;;;14.45;2.72;;;6.80;99.90;;;;;;4990218;28;20500;-77
2022/12/27 11:55:28;;;;;;;14.25;2.72;;;6.80;99.90;;;;;;4990228;28;20038;-77
2022/12/27 11:58:09;;;;;;;16.48;2.22;;;6.70;99.90;;;;;;4990469;28;20121;-77
2022/12/27 12:01:20;;;;;;;7.85;1.98;;;6.70;99.90;;;;;;4990389;28;20042;-78
2022/12/27 12:04:16;;;;;;;14.63;2.08;;;6.70;99.90;;;;;;5048034;28;20538;-77
2022/12/27 12:07:18;;;;;;;11.80;2.28;;;6.60;99.90;;;;;;5049736;28;20512;-77
2022/12/27 12:09:50;;;;;;;10.00;2.25;;;6.70;99.90;;;;;;5050134;28;20091;-77
2022/12/27 12:12:40;;;;;;;12.40;1.95;;;6.80;99.90;;;;;;5049932;28;20048;-77
2022/12/27 12:15:12;;;;;;;11.25;2.05;;;6.80;99.90;;;;;;5049826;28;20079;-77
2022/12/27 12:18:04;;;;;;;12.77;2.28;;;6.90;99.90;;;;;;5049725;28;20057;-78
2022/12/27 12:21:00;;;;;;;11.57;2.22;;;7.00;99.90;;;;;;5049368;28;20075;-77
2022/12/27 12:23:49;;;;;;;10.98;2.28;;;7.10;99.90;;;;;;5048091;28;20049;-77
2022/12/27 12:26:17;;;;;;;14.57;2.17;;;7.10;99.90;;;;;;5047814;28;20507;-80
2022/12/27 12:29:01;;;;;;;20.15;2.10;;;7.10;99.90;;;;;;5030587;28;20037;-76
2022/12/27 12:31:46;;;;;;;9.75;1.98;;;7.00;99.90;;;;;;5029269;28;20056;-75
2022/12/27 12:34:36;;;;;;;10.05;2.20;;;6.90;99.90;;;;;;5028956;28;20056;-75
2022/12/27 12:37:07;;;;;;;16.42;2.10;;;6.90;99.90;;;;;;5029413;28;20049;-76
2022/12/27 12:39:52;;;;;;;16.30;1.85;;;6.80;99.90;;;;;;5003817;28;20094;-75
2022/12/27 12:42:41;;;;;;;12.93;2.28;;;7.20;99.90;;;;;;4989444;28;20054;-75
2022/12/27 12:45:21;;;;;;;16.92;2.25;;;6.90;99.90;;;;;;4989363;28;20086;-75
2022/12/27 12:47:50;;;;;;;13.85;2.08;;;6.60;99.90;;;;;;4989763;28;20425;-74
2022/12/27 12:50:32;;;;;;;9.25;2.20;;;6.50;99.90;;;;;;4988356;28;20090;-75
2022/12/27 12:53:45;;;;;;;13.35;2.65;;;6.50;99.90;;;;;;4989546;28;20089;-75
2022/12/27 12:56:17;;;;;;;12.50;2.80;;;6.40;99.90;;;;;;4945823;28;20142;-75
2022/12/27 12:59:11;;;;;;;11.55;2.33;;;6.40;99.90;;;;;;4962535;28;20056;-75
2022/12/27 13:01:53;;;;;;;15.38;2.33;;;6.30;99.90;;;;;;4932279;28;20083;-76
2022/12/27 13:04:59;;;;;;;14.15;2.13;;;6.40;99.90;;;;;;4947980;29;20605;-74
2022/12/27 13:07:46;;;;;;;9.48;2.40;;;6.30;99.90;;;;;;4947681;28;20063;-74
2022/12/27 13:10:33;;;;;;;20.60;3.00;;;6.30;99.90;;;;;;4948034;28;20055;-76
2022/12/27 13:13:22;;;;;;;10.50;2.70;;;6.20;99.90;;;;;;4948064;28;20553;-76
2022/12/27 13:16:08;;;;;;;7.97;2.40;;;6.20;99.90;;;;;;4948217;29;20050;-75
2022/12/27 13:18:58;;;;;;;12.90;2.50;;;6.20;99.90;;;;;;4947580;28;20063;-76
2022/12/27 13:22:08;;;;;;;10.38;1.92;;;6.20;99.90;;;;;;5014962;28;20086;-76
2022/12/27 13:24:50;;;;;;;13.45;2.20;;;6.20;99.90;;;;;;5028817;28;20057;-77
2022/12/27 13:27:40;;;;;;;15.77;2.80;;;6.20;99.90;;;;;;5028695;28;20045;-77
2022/12/27 13:30:18;;;;;;;11.32;2.10;;;6.30;99.90;;;;;;5028809;28;20141;-77
2022/12/27 13:33:15;;;;;;;11.50;2.50;;;6.20;99.90;;;;;;4987605;28;20533;-77
2022/12/27 13:35:55;;;;;;;22.05;3.13;;;6.20;99.90;;;;;;4966930;28;20066;-76
2022/12/27 13:38:56;;;;;;;11.90;2.78;;;6.20;99.90;;;;;;4966654;28;20050;-77
2022/12/27 13:41:56;;;;;;;13.93;2.55;;;6.20;99.90;;;;;;4950852;28;20069;-78
2022/12/27 13:44:54;;;;;;;17.38;2.40;;;6.10;99.90;;;;;;4967137;28;20706;-78
2022/12/27 13:47:41;;;;;;;12.70;2.72;;;6.00;99.90;;;;;;4966886;28;20066;-80
2022/12/27 13:50:34;;;;;;;12.68;3.08;;;6.10;99.90;;;;;;4974414;28;20107;-77
2022/12/27 13:53:44;;;;;;;12.25;3.20;;;6.10;99.90;;;;;;4985635;28;20050;-79
2022/12/27 13:56:18;;;;;;;12.63;2.97;;;6.00;99.90;;;;;;4986018;28;20058;-79
2022/12/27 13:59:03;;;;;;;10.73;3.30;;;6.00;99.90;;;;;;4969768;28;20046;-77
2022/12/27 14:01:28;;;;;;;14.60;2.78;;;6.00;99.90;;;;;;4974142;28;20449;-76
2022/12/27 14:04:04;;;;;;;14.95;3.15;;;5.90;99.90;;;;;;4969064;28;20054;-82
2022/12/27 14:06:59;;;;;;;15.05;3.85;;;6.30;99.90;;;;;;4969008;28;20058;-81
2022/12/27 14:09:33;;;;;;;;;;;5.90;99.90;;;;;;4967884;28;20063;-76
2022/12/27 14:12:21;;;;;;;17.60;3.58;;;5.90;99.90;;;;;;4968840;28;20519;-77
2022/12/27 14:14:48;;;;;;;15.85;3.70;;;5.90;99.90;;;;;;4966757;28;20137;-78
2022/12/27 14:17:29;;;;;;;16.40;3.90;;;6.00;99.90;;;;;;4968830;28;20047;-77
2022/12/27 14:20:01;;;;;;;11.05;4.22;;;6.00;99.90;;;;;;4968788;28;20498;-81
2022/12/27 14:22:50;;;;;;;10.13;3.60;;;6.00;99.90;;;;;;4968839;28;20050;-79
2022/12/27 14:25:41;;;;;;;14.20;4.03;;;6.00;99.90;;;;;;4968365;28;20048;-77
2022/12/27 14:28:20;;;;;;;15.65;4.10;;;6.00;99.90;;;;;;4968612;28;20050;-77
2022/12/27 14:31:12;;;;;;;16.38;4.22;;;6.20;99.90;;;;;;4968708;28;20074;-77
2022/12/27 14:33:48;;;;;;;15.00;3.60;;;6.00;99.90;;;;;;4968444;28;20067;-78
2022/12/27 14:36:46;;;;;;;14.35;3.90;;;6.00;99.90;;;;;;4968395;28;20089;-79
2022/12/27 14:39:32;;;;;;;23.02;4.50;;;6.10;99.90;;;;;;4968214;28;20067;-77
2022/12/27 14:42:25;;;;;;;13.43;3.53;;;5.90;99.90;;;;;;4968511;28;20123;-78
2022/12/27 14:45:28;;;;;;;16.30;4.28;;;5.90;99.90;;;;;;4968454;28;20090;-77
2022/12/27 14:48:23;;;;;;;17.30;5.05;;;5.90;99.90;;;;;;4967076;28;20506;-77
2022/12/27 14:51:21;;;;;;;16.23;5.03;;;5.90;99.90;;;;;;4968412;28;20074;-78
2022/12/27 14:54:04;;;;;;;18.42;4.65;;;5.80;99.90;;;;;;5027134;28;20056;-77
2022/12/27 14:57:05;;;;;;;11.73;4.28;;;5.80;99.90;;;;;;5026814;28;20129;-79